LFLN

Saint-Yan Airport

Saint-Yan, France
TAF LFLN 180800Z 1809/1818 36008KT CAVOK
Issued Valid From Valid To
Aug-18 @ 08:00 UTC
(51 minutes ago)
Aug-18 @ 09:00 UTC
(in 9 minutes)
Aug-18 @ 18:00 UTC
(in 9 hours)
Aug-18 @ 09:00 to Aug-18 @ 18:00
TAF LFLN 180800Z 1809/1818 36008KT CAVOK
Wind Visibility Clouds Conditions
360° at 8 knots 10,000+ meters
  • No significant clouds
TAF LFLN 180800Z 1809/1818 36008KT CAVOK
Issued Aug-18 @ 08:00 UTC
(51 minutes ago)
Valid From Aug-18 @ 09:00 UTC
(in 9 minutes)
Valid To Aug-18 @ 18:00 UTC
(in 9 hours)
Aug-18 @ 09:00 - Aug-18 @ 18:00
Wind Visibility
360° at 8 knots 10,000+ meters
Clouds
  • No significant clouds
Conditions